EAG5512 SBNF-SBGR
Flight info
| Callsign | EAG5512 |
|---|---|
| Flight time | 0h 51m |
| Altitude | 33000 |
| Route | ENSUG DCT UMDOR UZ69 XONUG UZ121 BUXUK |
| Aircraft | B737/M-SDE2E3FGHIRWXY/LB1 |
Departure
| Time | 2026-04-20 13:37 |
|---|---|
| Airport | Ministro Victor Konder International Airport (SBNF) |
Arrival
| Time | 2026-04-20 14:29 |
|---|---|
| Airport | São Paulo/Guarulhos–Governor André Franco Montoro International Airport (SBGR) |
| Time | Latitude | Longitude | Altitude | Speed | Heading |
|---|---|---|---|---|---|
| 2026-04-20 13:23 | -26.88021 | -48.64944 | 28 ft | 0 kts | 146° |
| 2026-04-20 13:30 | -26.88020 | -48.64945 | 28 ft | 2 kts | 146° |
| 2026-04-20 13:30 | -26.88003 | -48.64957 | 28 ft | 3 kts | 142° |
| 2026-04-20 13:30 | -26.87990 | -48.64977 | 28 ft | 4 kts | 80° |
| 2026-04-20 13:30 | -26.88001 | -48.65003 | 28 ft | 4 kts | 55° |
| 2026-04-20 13:31 | -26.88007 | -48.65013 | 28 ft | 1 kts | 56° |
| 2026-04-20 13:32 | -26.88002 | -48.65005 | 28 ft | 4 kts | 56° |
| 2026-04-20 13:32 | -26.87984 | -48.64976 | 28 ft | 5 kts | 42° |
| 2026-04-20 13:33 | -26.87950 | -48.64981 | 28 ft | 6 kts | 330° |
| 2026-04-20 13:33 | -26.87910 | -48.65006 | 29 ft | 7 kts | 345° |
| 2026-04-20 13:33 | -26.87850 | -48.64945 | 29 ft | 17 kts | 56° |
| 2026-04-20 13:33 | -26.87781 | -48.64832 | 30 ft | 17 kts | 56° |
| 2026-04-20 13:34 | -26.87714 | -48.64721 | 29 ft | 17 kts | 56° |
| 2026-04-20 13:34 | -26.87649 | -48.64615 | 29 ft | 16 kts | 56° |
| 2026-04-20 13:34 | -26.87586 | -48.64513 | 29 ft | 16 kts | 56° |
| 2026-04-20 13:34 | -26.87528 | -48.64414 | 30 ft | 15 kts | 61° |
| 2026-04-20 13:35 | -26.87501 | -48.64351 | 29 ft | 4 kts | 2° |
| 2026-04-20 13:35 | -26.87498 | -48.64370 | 29 ft | 5 kts | 267° |
| 2026-04-20 13:35 | -26.87519 | -48.64403 | 30 ft | 1 kts | 234° |
| 2026-04-20 13:37 | -26.87523 | -48.64410 | 30 ft | 16 kts | 234° |
| 2026-04-20 13:37 | -26.87804 | -48.64870 | 29 ft | 124 kts | 236° |
| 2026-04-20 13:37 | -26.88433 | -48.65907 | 460 ft | 176 kts | 235° |
| 2026-04-20 13:37 | -26.89130 | -48.67052 | 1848 ft | 181 kts | 237° |
| 2026-04-20 13:38 | -26.89877 | -48.68287 | 2855 ft | 206 kts | 236° |
| 2026-04-20 13:38 | -26.90738 | -48.69704 | 3260 ft | 234 kts | 236° |
| 2026-04-20 13:38 | -26.91580 | -48.71313 | 3959 ft | 245 kts | 251° |
| 2026-04-20 13:38 | -26.91675 | -48.73216 | 4629 ft | 249 kts | 282° |
| 2026-04-20 13:39 | -26.90832 | -48.74900 | 5226 ft | 255 kts | 315° |
| 2026-04-20 13:39 | -26.89371 | -48.76024 | 6053 ft | 258 kts | 333° |
| 2026-04-20 13:39 | -26.87731 | -48.76867 | 6848 ft | 261 kts | 337° |
| 2026-04-20 13:39 | -26.86038 | -48.77675 | 7598 ft | 266 kts | 337° |
| 2026-04-20 13:40 | -26.84323 | -48.78496 | 8338 ft | 270 kts | 337° |
| 2026-04-20 13:40 | -26.82589 | -48.79340 | 9046 ft | 274 kts | 337° |
| 2026-04-20 13:40 | -26.80851 | -48.80200 | 9729 ft | 280 kts | 336° |
| 2026-04-20 13:40 | -26.79053 | -48.81100 | 10448 ft | 286 kts | 335° |
| 2026-04-20 13:41 | -26.77226 | -48.82019 | 11304 ft | 291 kts | 335° |
| 2026-04-20 13:41 | -26.75372 | -48.82953 | 12271 ft | 293 kts | 334° |
| 2026-04-20 13:41 | -26.73472 | -48.83836 | 13130 ft | 300 kts | 345° |
| 2026-04-20 13:41 | -26.71344 | -48.83968 | 13749 ft | 318 kts | 5° |
| 2026-04-20 13:42 | -26.69045 | -48.83676 | 13987 ft | 347 kts | 7° |
| 2026-04-20 13:42 | -26.63928 | -48.82863 | 14647 ft | 389 kts | 8° |
| 2026-04-20 13:42 | -26.61227 | -48.82441 | 15376 ft | 394 kts | 7° |
| 2026-04-20 13:43 | -26.58500 | -48.82030 | 16198 ft | 397 kts | 7° |
| 2026-04-20 13:43 | -26.55749 | -48.81626 | 16947 ft | 402 kts | 7° |
| 2026-04-20 13:43 | -26.52955 | -48.81221 | 17668 ft | 407 kts | 7° |
| 2026-04-20 13:43 | -26.50132 | -48.80815 | 18375 ft | 411 kts | 7° |
| 2026-04-20 13:44 | -26.47282 | -48.80407 | 19096 ft | 415 kts | 7° |
| 2026-04-20 13:44 | -26.44409 | -48.79995 | 19796 ft | 418 kts | 7° |
| 2026-04-20 13:44 | -26.41513 | -48.79580 | 20480 ft | 421 kts | 7° |
| 2026-04-20 13:44 | -26.38627 | -48.79166 | 21100 ft | 425 kts | 6° |
| 2026-04-20 13:45 | -26.35672 | -48.78743 | 21690 ft | 430 kts | 6° |
| 2026-04-20 13:45 | -26.32694 | -48.78317 | 22291 ft | 433 kts | 6° |
| 2026-04-20 13:45 | -26.29691 | -48.77887 | 22875 ft | 436 kts | 6° |
| 2026-04-20 13:45 | -26.26673 | -48.77455 | 23428 ft | 439 kts | 6° |
| 2026-04-20 13:46 | -26.23623 | -48.77019 | 23955 ft | 443 kts | 6° |
| 2026-04-20 13:46 | -26.20555 | -48.76581 | 24469 ft | 446 kts | 6° |
| 2026-04-20 13:46 | -26.17465 | -48.76139 | 24956 ft | 449 kts | 6° |
| 2026-04-20 13:46 | -26.14354 | -48.75694 | 25431 ft | 452 kts | 6° |
| 2026-04-20 13:47 | -26.11223 | -48.75228 | 25895 ft | 456 kts | 8° |
| 2026-04-20 13:47 | -26.08109 | -48.74476 | 26349 ft | 460 kts | 14° |
| 2026-04-20 13:47 | -26.05019 | -48.73501 | 26810 ft | 463 kts | 16° |
| 2026-04-20 13:47 | -26.01935 | -48.72439 | 27257 ft | 465 kts | 17° |
| 2026-04-20 13:48 | -25.98836 | -48.71360 | 27676 ft | 468 kts | 16° |
| 2026-04-20 13:48 | -25.95750 | -48.70305 | 28057 ft | 471 kts | 16° |
| 2026-04-20 13:48 | -25.92601 | -48.69257 | 28430 ft | 474 kts | 16° |
| 2026-04-20 13:48 | -25.89419 | -48.68222 | 28817 ft | 476 kts | 15° |
| 2026-04-20 13:49 | -25.86220 | -48.67196 | 29206 ft | 478 kts | 15° |
| 2026-04-20 13:49 | -25.82999 | -48.66172 | 29567 ft | 481 kts | 15° |
| 2026-04-20 13:49 | -25.79813 | -48.65162 | 29939 ft | 483 kts | 15° |
| 2026-04-20 13:49 | -25.76574 | -48.64137 | 30294 ft | 485 kts | 15° |
| 2026-04-20 13:50 | -25.73317 | -48.63105 | 30611 ft | 488 kts | 15° |
| 2026-04-20 13:50 | -25.70044 | -48.62068 | 30942 ft | 490 kts | 15° |
| 2026-04-20 13:50 | -25.66769 | -48.61029 | 31358 ft | 490 kts | 15° |
| 2026-04-20 13:50 | -25.63486 | -48.59988 | 31799 ft | 490 kts | 15° |
| 2026-04-20 13:51 | -25.60206 | -48.58948 | 32182 ft | 491 kts | 15° |
| 2026-04-20 13:51 | -25.56917 | -48.57907 | 32582 ft | 491 kts | 14° |
| 2026-04-20 13:51 | -25.53630 | -48.56866 | 32993 ft | 491 kts | 14° |
| 2026-04-20 13:51 | -25.50337 | -48.55825 | 33192 ft | 495 kts | 14° |
| 2026-04-20 13:52 | -25.43639 | -48.53709 | 33222 ft | 505 kts | 14° |
| 2026-04-20 13:52 | -25.36865 | -48.51570 | 33225 ft | 505 kts | 14° |
| 2026-04-20 13:53 | -25.30100 | -48.49436 | 33235 ft | 504 kts | 14° |
| 2026-04-20 13:53 | -25.23389 | -48.47324 | 33223 ft | 504 kts | 14° |
| 2026-04-20 13:54 | -25.16631 | -48.45194 | 33232 ft | 504 kts | 14° |
| 2026-04-20 13:54 | -25.11025 | -48.43424 | 33231 ft | 504 kts | 15° |
| 2026-04-20 13:55 | -25.04351 | -48.41061 | 33229 ft | 504 kts | 17° |
| 2026-04-20 13:55 | -24.97709 | -48.38589 | 33232 ft | 503 kts | 17° |
| 2026-04-20 13:56 | -24.91064 | -48.36149 | 33229 ft | 503 kts | 17° |
| 2026-04-20 13:56 | -24.84458 | -48.33757 | 33232 ft | 503 kts | 17° |
| 2026-04-20 13:57 | -24.77809 | -48.31361 | 33221 ft | 503 kts | 17° |
| 2026-04-20 13:57 | -24.71144 | -48.28959 | 33224 ft | 502 kts | 17° |
| 2026-04-20 13:58 | -24.64498 | -48.26565 | 33231 ft | 502 kts | 17° |
| 2026-04-20 13:58 | -24.57844 | -48.24171 | 33218 ft | 503 kts | 17° |
| 2026-04-20 13:59 | -24.51196 | -48.21782 | 33225 ft | 503 kts | 17° |
| 2026-04-20 13:59 | -24.44582 | -48.19408 | 33216 ft | 503 kts | 17° |
| 2026-04-20 14:00 | -24.37920 | -48.17019 | 33211 ft | 503 kts | 17° |
| 2026-04-20 14:00 | -24.31454 | -48.14108 | 33220 ft | 503 kts | 27° |
| 2026-04-20 14:01 | -24.25306 | -48.10419 | 33203 ft | 504 kts | 28° |
| 2026-04-20 14:01 | -24.19165 | -48.06703 | 33207 ft | 504 kts | 28° |
| 2026-04-20 14:02 | -24.12994 | -48.03046 | 33196 ft | 504 kts | 28° |
| 2026-04-20 14:02 | -24.06806 | -47.99413 | 33192 ft | 504 kts | 27° |
| 2026-04-20 14:03 | -24.00651 | -47.95804 | 33192 ft | 505 kts | 27° |
| 2026-04-20 14:03 | -23.94451 | -47.92169 | 33182 ft | 505 kts | 27° |
| 2026-04-20 14:04 | -23.88262 | -47.88542 | 33169 ft | 505 kts | 27° |
| 2026-04-20 14:04 | -23.85158 | -47.86724 | 32918 ft | 508 kts | 27° |
| 2026-04-20 14:04 | -23.82023 | -47.84889 | 32031 ft | 511 kts | 28° |
| 2026-04-20 14:05 | -23.78892 | -47.83058 | 31068 ft | 509 kts | 28° |
| 2026-04-20 14:05 | -23.75847 | -47.81126 | 30313 ft | 503 kts | 37° |
| 2026-04-20 14:05 | -23.73280 | -47.78592 | 29633 ft | 493 kts | 46° |
| 2026-04-20 14:05 | -23.70891 | -47.75929 | 28896 ft | 487 kts | 47° |
| 2026-04-20 14:06 | -23.68552 | -47.73347 | 28173 ft | 482 kts | 46° |
| 2026-04-20 14:06 | -23.66167 | -47.70798 | 27443 ft | 476 kts | 45° |
| 2026-04-20 14:06 | -23.63799 | -47.68314 | 26919 ft | 467 kts | 45° |
| 2026-04-20 14:06 | -23.61484 | -47.65892 | 26583 ft | 457 kts | 45° |
| 2026-04-20 14:07 | -23.59205 | -47.63505 | 26242 ft | 454 kts | 45° |
| 2026-04-20 14:07 | -23.56930 | -47.61117 | 25859 ft | 455 kts | 45° |
| 2026-04-20 14:07 | -23.54643 | -47.58715 | 25587 ft | 460 kts | 45° |
| 2026-04-20 14:07 | -23.52329 | -47.56286 | 25239 ft | 460 kts | 45° |
| 2026-04-20 14:08 | -23.50034 | -47.53878 | 24889 ft | 456 kts | 45° |
| 2026-04-20 14:08 | -23.47754 | -47.51488 | 24541 ft | 453 kts | 45° |
| 2026-04-20 14:08 | -23.45487 | -47.49112 | 24201 ft | 451 kts | 45° |
| 2026-04-20 14:08 | -23.43231 | -47.46746 | 23865 ft | 449 kts | 45° |
| 2026-04-20 14:09 | -23.40984 | -47.44394 | 23517 ft | 447 kts | 45° |
| 2026-04-20 14:09 | -23.38746 | -47.42053 | 23190 ft | 445 kts | 45° |
| 2026-04-20 14:09 | -23.36546 | -47.39753 | 22893 ft | 443 kts | 45° |
| 2026-04-20 14:09 | -23.34302 | -47.37408 | 22617 ft | 440 kts | 45° |
| 2026-04-20 14:10 | -23.32099 | -47.35106 | 22341 ft | 438 kts | 45° |
| 2026-04-20 14:10 | -23.29935 | -47.32846 | 22070 ft | 436 kts | 45° |
| 2026-04-20 14:10 | -23.27742 | -47.30557 | 21791 ft | 435 kts | 45° |
| 2026-04-20 14:10 | -23.25565 | -47.28283 | 21525 ft | 433 kts | 46° |
| 2026-04-20 14:11 | -23.23393 | -47.26016 | 21246 ft | 432 kts | 46° |
| 2026-04-20 14:11 | -23.21231 | -47.23761 | 20970 ft | 430 kts | 46° |
| 2026-04-20 14:11 | -23.19074 | -47.21511 | 20698 ft | 429 kts | 46° |
| 2026-04-20 14:11 | -23.16921 | -47.19267 | 20420 ft | 428 kts | 46° |
| 2026-04-20 14:12 | -23.14773 | -47.17031 | 20153 ft | 426 kts | 46° |
| 2026-04-20 14:12 | -23.12704 | -47.14747 | 19889 ft | 423 kts | 50° |
| 2026-04-20 14:12 | -23.10723 | -47.12375 | 19620 ft | 421 kts | 50° |
| 2026-04-20 14:12 | -23.08768 | -47.10018 | 19349 ft | 419 kts | 50° |
| 2026-04-20 14:13 | -23.06809 | -47.07686 | 19014 ft | 418 kts | 50° |
| 2026-04-20 14:13 | -23.04826 | -47.05345 | 18385 ft | 421 kts | 50° |
| 2026-04-20 14:13 | -23.02867 | -47.03043 | 17792 ft | 417 kts | 50° |
| 2026-04-20 14:13 | -23.00917 | -47.00753 | 17191 ft | 410 kts | 50° |
| 2026-04-20 14:14 | -22.98998 | -46.98499 | 16596 ft | 403 kts | 50° |
| 2026-04-20 14:14 | -22.97109 | -46.96280 | 16023 ft | 397 kts | 50° |
| 2026-04-20 14:14 | -22.95250 | -46.94095 | 15504 ft | 391 kts | 50° |
| 2026-04-20 14:14 | -22.93419 | -46.91943 | 14991 ft | 385 kts | 50° |
| 2026-04-20 14:15 | -22.91619 | -46.89831 | 14480 ft | 375 kts | 50° |
| 2026-04-20 14:15 | -22.89906 | -46.87798 | 14217 ft | 352 kts | 53° |
| 2026-04-20 14:15 | -22.88885 | -46.85549 | 14157 ft | 319 kts | 84° |
| 2026-04-20 14:15 | -22.88968 | -46.83197 | 14072 ft | 313 kts | 108° |
| 2026-04-20 14:16 | -22.89906 | -46.81089 | 13782 ft | 309 kts | 129° |
| 2026-04-20 14:16 | -22.91414 | -46.79468 | 13516 ft | 302 kts | 143° |
| 2026-04-20 14:16 | -22.93056 | -46.78081 | 13252 ft | 297 kts | 144° |
| 2026-04-20 14:16 | -22.94702 | -46.76744 | 12982 ft | 294 kts | 144° |
| 2026-04-20 14:17 | -22.96338 | -46.75418 | 12738 ft | 293 kts | 144° |
| 2026-04-20 14:17 | -22.97964 | -46.74091 | 12475 ft | 293 kts | 144° |
| 2026-04-20 14:17 | -22.99593 | -46.72753 | 12223 ft | 292 kts | 144° |
| 2026-04-20 14:17 | -23.01208 | -46.71418 | 11970 ft | 291 kts | 144° |
| 2026-04-20 14:18 | -23.02818 | -46.70082 | 11717 ft | 290 kts | 144° |
| 2026-04-20 14:18 | -23.04403 | -46.68763 | 11477 ft | 291 kts | 143° |
| 2026-04-20 14:18 | -23.06013 | -46.67425 | 11224 ft | 292 kts | 143° |
| 2026-04-20 14:18 | -23.07628 | -46.66080 | 10970 ft | 292 kts | 143° |
| 2026-04-20 14:19 | -23.09243 | -46.64734 | 10704 ft | 292 kts | 143° |
| 2026-04-20 14:19 | -23.10857 | -46.63387 | 10448 ft | 292 kts | 143° |
| 2026-04-20 14:19 | -23.12455 | -46.62051 | 10196 ft | 287 kts | 143° |
| 2026-04-20 14:19 | -23.14017 | -46.60747 | 9959 ft | 280 kts | 143° |
| 2026-04-20 14:20 | -23.15546 | -46.59469 | 9714 ft | 273 kts | 143° |
| 2026-04-20 14:20 | -23.17044 | -46.58214 | 9468 ft | 271 kts | 143° |
| 2026-04-20 14:20 | -23.18540 | -46.56966 | 9268 ft | 271 kts | 144° |
| 2026-04-20 14:20 | -23.20236 | -46.56113 | 9021 ft | 268 kts | 169° |
| 2026-04-20 14:21 | -23.22071 | -46.56167 | 8797 ft | 262 kts | 193° |
| 2026-04-20 14:21 | -23.23730 | -46.56941 | 8557 ft | 259 kts | 209° |
| 2026-04-20 14:21 | -23.25228 | -46.57980 | 8381 ft | 259 kts | 212° |
| 2026-04-20 14:21 | -23.26734 | -46.59082 | 8162 ft | 261 kts | 213° |
| 2026-04-20 14:22 | -23.28247 | -46.60189 | 7833 ft | 264 kts | 212° |
| 2026-04-20 14:22 | -23.29768 | -46.61289 | 7555 ft | 261 kts | 212° |
| 2026-04-20 14:22 | -23.31265 | -46.62362 | 7340 ft | 254 kts | 212° |
| 2026-04-20 14:22 | -23.32739 | -46.63413 | 7151 ft | 253 kts | 212° |
| 2026-04-20 14:23 | -23.34215 | -46.64462 | 6986 ft | 255 kts | 212° |
| 2026-04-20 14:23 | -23.35707 | -46.65523 | 6768 ft | 257 kts | 212° |
| 2026-04-20 14:23 | -23.37202 | -46.66592 | 6588 ft | 257 kts | 212° |
| 2026-04-20 14:23 | -23.38697 | -46.67659 | 6400 ft | 255 kts | 212° |
| 2026-04-20 14:24 | -23.40141 | -46.68679 | 6309 ft | 238 kts | 208° |
| 2026-04-20 14:24 | -23.41654 | -46.69148 | 6150 ft | 221 kts | 178° |
| 2026-04-20 14:24 | -23.43102 | -46.68792 | 5899 ft | 212 kts | 154° |
| 2026-04-20 14:24 | -23.44286 | -46.67884 | 5656 ft | 205 kts | 133° |
| 2026-04-20 14:25 | -23.45128 | -46.66667 | 5415 ft | 197 kts | 125° |
| 2026-04-20 14:25 | -23.45884 | -46.65448 | 5255 ft | 193 kts | 124° |
| 2026-04-20 14:25 | -23.46635 | -46.64241 | 5004 ft | 190 kts | 125° |
| 2026-04-20 14:25 | -23.47299 | -46.63038 | 4857 ft | 183 kts | 108° |
| 2026-04-20 14:26 | -23.47258 | -46.61694 | 4680 ft | 174 kts | 80° |
| 2026-04-20 14:26 | -23.47014 | -46.60414 | 4466 ft | 171 kts | 78° |
| 2026-04-20 14:26 | -23.46717 | -46.59193 | 4291 ft | 163 kts | 76° |
| 2026-04-20 14:26 | -23.46415 | -46.58062 | 4165 ft | 150 kts | 76° |
| 2026-04-20 14:27 | -23.46125 | -46.56996 | 4035 ft | 141 kts | 76° |
| 2026-04-20 14:27 | -23.45851 | -46.55986 | 3849 ft | 138 kts | 76° |
| 2026-04-20 14:27 | -23.45576 | -46.54965 | 3657 ft | 141 kts | 76° |
| 2026-04-20 14:27 | -23.45300 | -46.53947 | 3475 ft | 140 kts | 75° |
| 2026-04-20 14:28 | -23.45030 | -46.52927 | 3395 ft | 136 kts | 77° |
| 2026-04-20 14:28 | -23.44759 | -46.51923 | 3171 ft | 143 kts | 75° |
| 2026-04-20 14:28 | -23.44453 | -46.50875 | 2929 ft | 145 kts | 74° |
| 2026-04-20 14:28 | -23.44176 | -46.49839 | 2680 ft | 140 kts | 75° |
| 2026-04-20 14:29 | -23.43919 | -46.48845 | 2487 ft | 131 kts | 75° |
| 2026-04-20 14:29 | -23.43692 | -46.48009 | 2460 ft | 88 kts | 74° |
| 2026-04-20 14:29 | -23.43575 | -46.47571 | 2466 ft | 45 kts | 73° |
| 2026-04-20 14:29 | -23.43491 | -46.47261 | 2462 ft | 35 kts | 74° |
| 2026-04-20 14:30 | -23.43439 | -46.47078 | 2465 ft | 21 kts | 68° |
| 2026-04-20 14:30 | -23.43379 | -46.46958 | 2466 ft | 16 kts | 53° |
| 2026-04-20 14:30 | -23.43313 | -46.46878 | 2461 ft | 12 kts | 47° |
| 2026-04-20 14:30 | -23.43256 | -46.46818 | 2461 ft | 12 kts | 43° |
| 2026-04-20 14:31 | -23.43182 | -46.46744 | 2461 ft | 16 kts | 43° |
| 2026-04-20 14:31 | -23.43077 | -46.46723 | 2467 ft | 17 kts | 343° |
| 2026-04-20 14:31 | -23.42959 | -46.46762 | 2461 ft | 19 kts | 343° |
| 2026-04-20 14:31 | -23.42855 | -46.46795 | 2462 ft | 14 kts | 343° |
| 2026-04-20 14:32 | -23.42768 | -46.46841 | 2460 ft | 14 kts | 291° |
| 2026-04-20 14:32 | -23.42796 | -46.46949 | 2460 ft | 16 kts | 253° |
| 2026-04-20 14:32 | -23.42829 | -46.47070 | 2460 ft | 17 kts | 254° |
| 2026-04-20 14:32 | -23.42864 | -46.47201 | 2460 ft | 19 kts | 253° |
| 2026-04-20 14:33 | -23.42903 | -46.47343 | 2462 ft | 20 kts | 253° |
| 2026-04-20 14:33 | -23.42941 | -46.47481 | 2462 ft | 20 kts | 254° |
| 2026-04-20 14:33 | -23.42978 | -46.47623 | 2460 ft | 18 kts | 253° |
| 2026-04-20 14:33 | -23.43017 | -46.47763 | 2460 ft | 20 kts | 254° |
| 2026-04-20 14:34 | -23.43057 | -46.47915 | 2462 ft | 21 kts | 253° |
| 2026-04-20 14:34 | -23.43097 | -46.48059 | 2465 ft | 11 kts | 255° |
| 2026-04-20 14:34 | -23.43079 | -46.48125 | 2463 ft | 10 kts | 333° |
| 2026-04-20 14:34 | -23.42996 | -46.48137 | 2464 ft | 13 kts | 354° |
| 2026-04-20 14:35 | -23.42896 | -46.48147 | 2466 ft | 15 kts | 354° |
| 2026-04-20 14:35 | -23.42846 | -46.48144 | 2460 ft | 5 kts | 34° |
| 2026-04-20 14:35 | -23.42842 | -46.48101 | 2460 ft | 7 kts | 92° |
| 2026-04-20 14:35 | -23.42840 | -46.48068 | 2460 ft | 3 kts | 85° |
| 2026-04-20 14:36 | -23.42839 | -46.48062 | 2460 ft | 0 kts | 86° |